sensor_id;sensor_type;location;lat;lon;timestamp;P1;durP1;ratioP1;P2;durP2;ratioP2
4080;SDS011;2055;50.074;8.436;2022-08-01T00:00:12;0.70;;;0.70;;
4080;SDS011;2055;50.074;8.436;2022-08-01T00:02:39;0.40;;;0.40;;
4080;SDS011;2055;50.074;8.436;2022-08-01T00:05:05;1.53;;;0.90;;
4080;SDS011;2055;50.074;8.436;2022-08-01T00:07:32;0.40;;;0.40;;
4080;SDS011;2055;50.074;8.436;2022-08-01T00:10:02;1.37;;;0.70;;
4080;SDS011;2055;50.074;8.436;2022-08-01T00:12:30;0.40;;;0.40;;
4080;SDS011;2055;50.074;8.436;2022-08-01T00:14:56;0.40;;;0.40;;
4080;SDS011;2055;50.074;8.436;2022-08-01T00:17:21;0.40;;;0.40;;
4080;SDS011;2055;50.074;8.436;2022-08-01T00:19:47;1.17;;;0.70;;
4080;SDS011;2055;50.074;8.436;2022-08-01T00:22:13;0.40;;;0.40;;
4080;SDS011;2055;50.074;8.436;2022-08-01T00:24:38;0.40;;;0.40;;
4080;SDS011;2055;50.074;8.436;2022-08-01T00:27:04;0.57;;;0.53;;
4080;SDS011;2055;50.074;8.436;2022-08-01T00:29:29;0.40;;;0.40;;
4080;SDS011;2055;50.074;8.436;2022-08-01T00:31:55;0.50;;;0.50;;
4080;SDS011;2055;50.074;8.436;2022-08-01T00:34:20;0.63;;;0.57;;
4080;SDS011;2055;50.074;8.436;2022-08-01T00:36:46;0.93;;;0.70;;
4080;SDS011;2055;50.074;8.436;2022-08-01T00:39:12;0.57;;;0.53;;
4080;SDS011;2055;50.074;8.436;2022-08-01T00:41:37;0.40;;;0.30;;
4080;SDS011;2055;50.074;8.436;2022-08-01T00:44:04;0.40;;;0.40;;
4080;SDS011;2055;50.074;8.436;2022-08-01T00:46:30;0.40;;;0.40;;
4080;SDS011;2055;50.074;8.436;2022-08-01T00:48:56;0.40;;;0.40;;
4080;SDS011;2055;50.074;8.436;2022-08-01T00:51:22;0.40;;;0.40;;
4080;SDS011;2055;50.074;8.436;2022-08-01T00:53:50;0.70;;;0.57;;
4080;SDS011;2055;50.074;8.436;2022-08-01T00:56:16;0.40;;;0.40;;
4080;SDS011;2055;50.074;8.436;2022-08-01T00:58:42;0.70;;;0.60;;
4080;SDS011;2055;50.074;8.436;2022-08-01T01:01:08;0.50;;;0.50;;
4080;SDS011;2055;50.074;8.436;2022-08-01T01:03:34;0.60;;;0.50;;
4080;SDS011;2055;50.074;8.436;2022-08-01T01:11:32;0.40;;;0.40;;
4080;SDS011;2055;50.074;8.436;2022-08-01T01:14:10;0.40;;;0.40;;
4080;SDS011;2055;50.074;8.436;2022-08-01T01:16:48;0.40;;;0.40;;
4080;SDS011;2055;50.074;8.436;2022-08-01T01:19:16;0.40;;;0.40;;
4080;SDS011;2055;50.074;8.436;2022-08-01T01:21:56;0.43;;;0.40;;
4080;SDS011;2055;50.074;8.436;2022-08-01T01:24:40;0.60;;;0.50;;
4080;SDS011;2055;50.074;8.436;2022-08-01T01:30:04;0.40;;;0.40;;
4080;SDS011;2055;50.074;8.436;2022-08-01T01:33:05;0.40;;;0.40;;
4080;SDS011;2055;50.074;8.436;2022-08-01T01:35:25;0.80;;;0.60;;
4080;SDS011;2055;50.074;8.436;2022-08-01T01:37:55;0.40;;;0.40;;
4080;SDS011;2055;50.074;8.436;2022-08-01T01:40:24;0.40;;;0.30;;
4080;SDS011;2055;50.074;8.436;2022-08-01T01:42:51;0.40;;;0.40;;
4080;SDS011;2055;50.074;8.436;2022-08-01T01:45:20;0.40;;;0.40;;
4080;SDS011;2055;50.074;8.436;2022-08-01T01:47:48;0.40;;;0.40;;
4080;SDS011;2055;50.074;8.436;2022-08-01T01:50:15;0.40;;;0.40;;
4080;SDS011;2055;50.074;8.436;2022-08-01T01:52:42;0.40;;;0.40;;
4080;SDS011;2055;50.074;8.436;2022-08-01T01:55:09;0.83;;;0.70;;
4080;SDS011;2055;50.074;8.436;2022-08-01T01:57:40;0.40;;;0.40;;
4080;SDS011;2055;50.074;8.436;2022-08-01T02:00:07;0.40;;;0.40;;
4080;SDS011;2055;50.074;8.436;2022-08-01T02:02:36;0.40;;;0.30;;
4080;SDS011;2055;50.074;8.436;2022-08-01T02:05:03;0.40;;;0.30;;
4080;SDS011;2055;50.074;8.436;2022-08-01T02:07:31;0.40;;;0.40;;
4080;SDS011;2055;50.074;8.436;2022-08-01T02:09:59;0.40;;;0.40;;
4080;SDS011;2055;50.074;8.436;2022-08-01T02:12:26;0.40;;;0.30;;
4080;SDS011;2055;50.074;8.436;2022-08-01T02:14:53;0.40;;;0.40;;
4080;SDS011;2055;50.074;8.436;2022-08-01T02:17:19;0.40;;;0.40;;
4080;SDS011;2055;50.074;8.436;2022-08-01T02:19:47;0.60;;;0.50;;
4080;SDS011;2055;50.074;8.436;2022-08-01T02:24:59;0.40;;;0.40;;
4080;SDS011;2055;50.074;8.436;2022-08-01T02:27:34;0.40;;;0.40;;
4080;SDS011;2055;50.074;8.436;2022-08-01T02:30:06;0.40;;;0.40;;
4080;SDS011;2055;50.074;8.436;2022-08-01T02:32:37;0.40;;;0.33;;
4080;SDS011;2055;50.074;8.436;2022-08-01T02:35:23;0.40;;;0.40;;
4080;SDS011;2055;50.074;8.436;2022-08-01T02:37:52;0.40;;;0.40;;
4080;SDS011;2055;50.074;8.436;2022-08-01T02:40:20;0.40;;;0.40;;
4080;SDS011;2055;50.074;8.436;2022-08-01T02:42:50;0.40;;;0.40;;
4080;SDS011;2055;50.074;8.436;2022-08-01T02:45:17;0.40;;;0.40;;
4080;SDS011;2055;50.074;8.436;2022-08-01T02:47:45;0.40;;;0.40;;
4080;SDS011;2055;50.074;8.436;2022-08-01T02:50:13;0.40;;;0.40;;
4080;SDS011;2055;50.074;8.436;2022-08-01T02:52:41;0.40;;;0.40;;
4080;SDS011;2055;50.074;8.436;2022-08-01T02:55:10;0.60;;;0.50;;
4080;SDS011;2055;50.074;8.436;2022-08-01T02:57:38;0.40;;;0.40;;
4080;SDS011;2055;50.074;8.436;2022-08-01T03:00:05;0.40;;;0.40;;
4080;SDS011;2055;50.074;8.436;2022-08-01T03:02:32;0.40;;;0.40;;
4080;SDS011;2055;50.074;8.436;2022-08-01T03:04:59;0.40;;;0.40;;
4080;SDS011;2055;50.074;8.436;2022-08-01T03:07:27;0.40;;;0.30;;
4080;SDS011;2055;50.074;8.436;2022-08-01T03:09:55;0.40;;;0.40;;
4080;SDS011;2055;50.074;8.436;2022-08-01T03:12:23;0.40;;;0.40;;
4080;SDS011;2055;50.074;8.436;2022-08-01T03:14:52;0.40;;;0.30;;
4080;SDS011;2055;50.074;8.436;2022-08-01T03:17:20;0.60;;;0.60;;
4080;SDS011;2055;50.074;8.436;2022-08-01T03:19:48;0.40;;;0.40;;
4080;SDS011;2055;50.074;8.436;2022-08-01T03:22:14;0.40;;;0.40;;
4080;SDS011;2055;50.074;8.436;2022-08-01T03:24:41;0.40;;;0.40;;
4080;SDS011;2055;50.074;8.436;2022-08-01T03:27:09;0.40;;;0.40;;
4080;SDS011;2055;50.074;8.436;2022-08-01T03:29:36;0.40;;;0.40;;
4080;SDS011;2055;50.074;8.436;2022-08-01T03:32:03;0.40;;;0.40;;
4080;SDS011;2055;50.074;8.436;2022-08-01T03:34:30;0.40;;;0.40;;
4080;SDS011;2055;50.074;8.436;2022-08-01T03:36:58;0.40;;;0.40;;
4080;SDS011;2055;50.074;8.436;2022-08-01T03:39:37;0.40;;;0.40;;
4080;SDS011;2055;50.074;8.436;2022-08-01T03:42:11;0.40;;;0.30;;
4080;SDS011;2055;50.074;8.436;2022-08-01T03:44:41;0.40;;;0.40;;
4080;SDS011;2055;50.074;8.436;2022-08-01T03:47:08;0.40;;;0.40;;
4080;SDS011;2055;50.074;8.436;2022-08-01T03:49:37;0.40;;;0.40;;
4080;SDS011;2055;50.074;8.436;2022-08-01T03:52:08;0.40;;;0.40;;
4080;SDS011;2055;50.074;8.436;2022-08-01T03:54:36;0.40;;;0.40;;
4080;SDS011;2055;50.074;8.436;2022-08-01T03:57:05;0.40;;;0.40;;
4080;SDS011;2055;50.074;8.436;2022-08-01T03:59:31;0.70;;;0.60;;
4080;SDS011;2055;50.074;8.436;2022-08-01T04:01:59;0.80;;;0.70;;
4080;SDS011;2055;50.074;8.436;2022-08-01T04:04:25;0.40;;;0.40;;
4080;SDS011;2055;50.074;8.436;2022-08-01T04:06:53;0.40;;;0.40;;
4080;SDS011;2055;50.074;8.436;2022-08-01T04:09:19;0.40;;;0.40;;
4080;SDS011;2055;50.074;8.436;2022-08-01T04:11:46;0.63;;;0.57;;
4080;SDS011;2055;50.074;8.436;2022-08-01T04:14:12;0.40;;;0.40;;
4080;SDS011;2055;50.074;8.436;2022-08-01T04:16:38;0.40;;;0.40;;
4080;SDS011;2055;50.074;8.436;2022-08-01T04:19:03;0.40;;;0.37;;
4080;SDS011;2055;50.074;8.436;2022-08-01T04:21:32;0.40;;;0.30;;
4080;SDS011;2055;50.074;8.436;2022-08-01T04:24:02;0.40;;;0.40;;
4080;SDS011;2055;50.074;8.436;2022-08-01T04:26:35;0.40;;;0.40;;
4080;SDS011;2055;50.074;8.436;2022-08-01T04:29:02;0.83;;;0.70;;
4080;SDS011;2055;50.074;8.436;2022-08-01T04:31:30;0.40;;;0.40;;
4080;SDS011;2055;50.074;8.436;2022-08-01T04:33:57;0.40;;;0.40;;
4080;SDS011;2055;50.074;8.436;2022-08-01T04:36:24;0.40;;;0.40;;
4080;SDS011;2055;50.074;8.436;2022-08-01T04:38:54;0.40;;;0.40;;
4080;SDS011;2055;50.074;8.436;2022-08-01T04:41:22;0.40;;;0.40;;
4080;SDS011;2055;50.074;8.436;2022-08-01T04:43:49;0.40;;;0.40;;
4080;SDS011;2055;50.074;8.436;2022-08-01T04:46:16;0.50;;;0.50;;
4080;SDS011;2055;50.074;8.436;2022-08-01T04:48:44;0.40;;;0.40;;
4080;SDS011;2055;50.074;8.436;2022-08-01T04:51:16;0.40;;;0.40;;
4080;SDS011;2055;50.074;8.436;2022-08-01T04:53:44;0.40;;;0.40;;
4080;SDS011;2055;50.074;8.436;2022-08-01T04:56:13;0.40;;;0.40;;
4080;SDS011;2055;50.074;8.436;2022-08-01T04:58:39;0.40;;;0.40;;
4080;SDS011;2055;50.074;8.436;2022-08-01T05:01:08;0.40;;;0.40;;
4080;SDS011;2055;50.074;8.436;2022-08-01T05:03:35;0.40;;;0.40;;
4080;SDS011;2055;50.074;8.436;2022-08-01T05:06:00;0.90;;;0.80;;
4080;SDS011;2055;50.074;8.436;2022-08-01T05:08:26;0.40;;;0.30;;
4080;SDS011;2055;50.074;8.436;2022-08-01T05:10:52;0.80;;;0.70;;
4080;SDS011;2055;50.074;8.436;2022-08-01T05:13:17;0.70;;;0.60;;
4080;SDS011;2055;50.074;8.436;2022-08-01T05:15:44;0.40;;;0.40;;
4080;SDS011;2055;50.074;8.436;2022-08-01T05:18:10;1.27;;;0.80;;
4080;SDS011;2055;50.074;8.436;2022-08-01T05:20:36;1.43;;;1.17;;
4080;SDS011;2055;50.074;8.436;2022-08-01T05:23:02;0.70;;;0.60;;
4080;SDS011;2055;50.074;8.436;2022-08-01T05:25:30;0.40;;;0.40;;
4080;SDS011;2055;50.074;8.436;2022-08-01T05:27:56;0.40;;;0.40;;
4080;SDS011;2055;50.074;8.436;2022-08-01T05:30:21;0.40;;;0.40;;
4080;SDS011;2055;50.074;8.436;2022-08-01T05:32:47;0.80;;;0.70;;
4080;SDS011;2055;50.074;8.436;2022-08-01T05:35:12;0.60;;;0.53;;
4080;SDS011;2055;50.074;8.436;2022-08-01T05:37:38;1.17;;;1.00;;
4080;SDS011;2055;50.074;8.436;2022-08-01T05:40:04;0.40;;;0.40;;
4080;SDS011;2055;50.074;8.436;2022-08-01T05:42:30;0.70;;;0.60;;
4080;SDS011;2055;50.074;8.436;2022-08-01T05:44:56;0.47;;;0.43;;
4080;SDS011;2055;50.074;8.436;2022-08-01T05:47:21;0.40;;;0.40;;
4080;SDS011;2055;50.074;8.436;2022-08-01T05:49:47;0.40;;;0.40;;
4080;SDS011;2055;50.074;8.436;2022-08-01T05:52:12;0.40;;;0.40;;
4080;SDS011;2055;50.074;8.436;2022-08-01T05:54:39;0.60;;;0.50;;
4080;SDS011;2055;50.074;8.436;2022-08-01T05:57:04;0.40;;;0.40;;
4080;SDS011;2055;50.074;8.436;2022-08-01T05:59:30;0.40;;;0.40;;
4080;SDS011;2055;50.074;8.436;2022-08-01T06:01:56;0.47;;;0.43;;
4080;SDS011;2055;50.074;8.436;2022-08-01T06:04:22;0.60;;;0.50;;
4080;SDS011;2055;50.074;8.436;2022-08-01T06:06:47;0.40;;;0.40;;
4080;SDS011;2055;50.074;8.436;2022-08-01T06:09:13;0.40;;;0.40;;
4080;SDS011;2055;50.074;8.436;2022-08-01T06:11:39;0.40;;;0.40;;
4080;SDS011;2055;50.074;8.436;2022-08-01T06:14:04;0.40;;;0.40;;
4080;SDS011;2055;50.074;8.436;2022-08-01T06:16:30;0.40;;;0.40;;
4080;SDS011;2055;50.074;8.436;2022-08-01T06:18:56;0.53;;;0.47;;
4080;SDS011;2055;50.074;8.436;2022-08-01T06:21:21;0.63;;;0.53;;
4080;SDS011;2055;50.074;8.436;2022-08-01T06:23:47;0.80;;;0.70;;
4080;SDS011;2055;50.074;8.436;2022-08-01T06:26:12;0.60;;;0.50;;
4080;SDS011;2055;50.074;8.436;2022-08-01T06:28:38;1.03;;;1.00;;
4080;SDS011;2055;50.074;8.436;2022-08-01T06:31:04;0.60;;;0.50;;
4080;SDS011;2055;50.074;8.436;2022-08-01T06:33:30;0.60;;;0.50;;
4080;SDS011;2055;50.074;8.436;2022-08-01T06:35:55;0.70;;;0.60;;
4080;SDS011;2055;50.074;8.436;2022-08-01T06:38:21;0.70;;;0.60;;
4080;SDS011;2055;50.074;8.436;2022-08-01T06:40:47;0.70;;;0.60;;
4080;SDS011;2055;50.074;8.436;2022-08-01T06:43:12;1.10;;;1.00;;
4080;SDS011;2055;50.074;8.436;2022-08-01T06:45:38;0.70;;;0.60;;
4080;SDS011;2055;50.074;8.436;2022-08-01T06:48:05;1.10;;;1.00;;
4080;SDS011;2055;50.074;8.436;2022-08-01T06:50:31;0.70;;;0.60;;
4080;SDS011;2055;50.074;8.436;2022-08-01T06:52:56;0.70;;;0.63;;
4080;SDS011;2055;50.074;8.436;2022-08-01T06:55:22;0.60;;;0.50;;
4080;SDS011;2055;50.074;8.436;2022-08-01T06:57:49;0.60;;;0.50;;
4080;SDS011;2055;50.074;8.436;2022-08-01T07:00:16;0.40;;;0.40;;
4080;SDS011;2055;50.074;8.436;2022-08-01T07:02:46;0.57;;;0.50;;
4080;SDS011;2055;50.074;8.436;2022-08-01T07:05:11;0.70;;;0.60;;
4080;SDS011;2055;50.074;8.436;2022-08-01T07:07:37;0.70;;;0.60;;
4080;SDS011;2055;50.074;8.436;2022-08-01T07:10:04;0.80;;;0.70;;
4080;SDS011;2055;50.074;8.436;2022-08-01T07:12:30;0.70;;;0.60;;
4080;SDS011;2055;50.074;8.436;2022-08-01T07:14:55;0.70;;;0.60;;
4080;SDS011;2055;50.074;8.436;2022-08-01T07:17:21;0.80;;;0.70;;
4080;SDS011;2055;50.074;8.436;2022-08-01T07:19:47;0.60;;;0.50;;
4080;SDS011;2055;50.074;8.436;2022-08-01T07:22:13;2.63;;;0.80;;
4080;SDS011;2055;50.074;8.436;2022-08-01T07:24:41;2.20;;;2.00;;
4080;SDS011;2055;50.074;8.436;2022-08-01T07:27:07;0.70;;;0.60;;
4080;SDS011;2055;50.074;8.436;2022-08-01T07:29:32;0.90;;;0.80;;
4080;SDS011;2055;50.074;8.436;2022-08-01T07:31:58;0.70;;;0.60;;
4080;SDS011;2055;50.074;8.436;2022-08-01T07:34:24;0.73;;;0.63;;
4080;SDS011;2055;50.074;8.436;2022-08-01T07:36:51;0.60;;;0.50;;
4080;SDS011;2055;50.074;8.436;2022-08-01T07:39:17;0.60;;;0.50;;
4080;SDS011;2055;50.074;8.436;2022-08-01T07:41:43;0.67;;;0.57;;
4080;SDS011;2055;50.074;8.436;2022-08-01T07:44:09;0.70;;;0.60;;
4080;SDS011;2055;50.074;8.436;2022-08-01T07:46:34;0.73;;;0.63;;
4080;SDS011;2055;50.074;8.436;2022-08-01T07:49:00;0.70;;;0.60;;
4080;SDS011;2055;50.074;8.436;2022-08-01T07:51:26;1.00;;;0.90;;
4080;SDS011;2055;50.074;8.436;2022-08-01T07:53:52;3.17;;;2.43;;
4080;SDS011;2055;50.074;8.436;2022-08-01T07:56:18;1.20;;;1.10;;
4080;SDS011;2055;50.074;8.436;2022-08-01T07:58:44;0.90;;;0.80;;
4080;SDS011;2055;50.074;8.436;2022-08-01T08:01:11;0.90;;;0.80;;
4080;SDS011;2055;50.074;8.436;2022-08-01T08:03:37;1.10;;;1.00;;
4080;SDS011;2055;50.074;8.436;2022-08-01T08:06:02;1.20;;;1.10;;
4080;SDS011;2055;50.074;8.436;2022-08-01T08:08:28;1.00;;;0.90;;
4080;SDS011;2055;50.074;8.436;2022-08-01T08:10:53;0.80;;;0.70;;
4080;SDS011;2055;50.074;8.436;2022-08-01T08:13:19;0.80;;;0.70;;
4080;SDS011;2055;50.074;8.436;2022-08-01T08:15:44;0.90;;;0.80;;
4080;SDS011;2055;50.074;8.436;2022-08-01T08:18:10;0.80;;;0.70;;
4080;SDS011;2055;50.074;8.436;2022-08-01T08:20:36;0.80;;;0.70;;
4080;SDS011;2055;50.074;8.436;2022-08-01T08:23:01;0.87;;;0.77;;
4080;SDS011;2055;50.074;8.436;2022-08-01T08:25:47;0.70;;;0.60;;
4080;SDS011;2055;50.074;8.436;2022-08-01T08:28:13;0.60;;;0.50;;
4080;SDS011;2055;50.074;8.436;2022-08-01T08:30:38;0.70;;;0.60;;
4080;SDS011;2055;50.074;8.436;2022-08-01T08:33:04;1.67;;;1.53;;
4080;SDS011;2055;50.074;8.436;2022-08-01T08:35:29;0.70;;;0.60;;
4080;SDS011;2055;50.074;8.436;2022-08-01T08:37:55;0.90;;;0.80;;
4080;SDS011;2055;50.074;8.436;2022-08-01T08:40:21;1.10;;;1.00;;
4080;SDS011;2055;50.074;8.436;2022-08-01T08:42:51;3.67;;;2.23;;
4080;SDS011;2055;50.074;8.436;2022-08-01T08:45:17;0.80;;;0.70;;
4080;SDS011;2055;50.074;8.436;2022-08-01T08:47:43;0.90;;;0.80;;
4080;SDS011;2055;50.074;8.436;2022-08-01T08:50:11;0.80;;;0.70;;
4080;SDS011;2055;50.074;8.436;2022-08-01T08:52:37;0.83;;;0.73;;
4080;SDS011;2055;50.074;8.436;2022-08-01T08:55:04;0.90;;;0.80;;
4080;SDS011;2055;50.074;8.436;2022-08-01T08:57:30;0.70;;;0.60;;
4080;SDS011;2055;50.074;8.436;2022-08-01T08:59:56;0.80;;;0.70;;
4080;SDS011;2055;50.074;8.436;2022-08-01T09:02:22;1.53;;;1.43;;
4080;SDS011;2055;50.074;8.436;2022-08-01T09:04:49;0.80;;;0.70;;
4080;SDS011;2055;50.074;8.436;2022-08-01T09:07:15;0.80;;;0.70;;
4080;SDS011;2055;50.074;8.436;2022-08-01T09:09:41;0.80;;;0.70;;
4080;SDS011;2055;50.074;8.436;2022-08-01T09:12:06;0.80;;;0.70;;
4080;SDS011;2055;50.074;8.436;2022-08-01T09:14:32;1.23;;;1.13;;
4080;SDS011;2055;50.074;8.436;2022-08-01T09:17:07;0.80;;;0.70;;
4080;SDS011;2055;50.074;8.436;2022-08-01T09:19:36;0.93;;;0.83;;
4080;SDS011;2055;50.074;8.436;2022-08-01T09:22:10;1.10;;;1.00;;
4080;SDS011;2055;50.074;8.436;2022-08-01T09:24:37;1.17;;;1.07;;
4080;SDS011;2055;50.074;8.436;2022-08-01T09:29:44;1.27;;;1.17;;
4080;SDS011;2055;50.074;8.436;2022-08-01T09:32:10;1.13;;;1.03;;
4080;SDS011;2055;50.074;8.436;2022-08-01T09:34:36;2.00;;;1.93;;
4080;SDS011;2055;50.074;8.436;2022-08-01T09:37:02;1.40;;;1.30;;
4080;SDS011;2055;50.074;8.436;2022-08-01T09:39:30;1.57;;;1.23;;
4080;SDS011;2055;50.074;8.436;2022-08-01T09:42:18;2.20;;;1.80;;
4080;SDS011;2055;50.074;8.436;2022-08-01T09:44:48;1.27;;;1.17;;
4080;SDS011;2055;50.074;8.436;2022-08-01T09:47:14;1.80;;;1.70;;
4080;SDS011;2055;50.074;8.436;2022-08-01T09:49:41;1.33;;;1.23;;
4080;SDS011;2055;50.074;8.436;2022-08-01T09:52:16;1.10;;;1.00;;
4080;SDS011;2055;50.074;8.436;2022-08-01T09:54:43;0.90;;;0.80;;
4080;SDS011;2055;50.074;8.436;2022-08-01T09:57:17;1.30;;;1.20;;
4080;SDS011;2055;50.074;8.436;2022-08-01T09:59:47;1.57;;;1.47;;
4080;SDS011;2055;50.074;8.436;2022-08-01T10:02:26;1.10;;;1.00;;
4080;SDS011;2055;50.074;8.436;2022-08-01T10:04:51;1.33;;;1.23;;
4080;SDS011;2055;50.074;8.436;2022-08-01T10:07:17;1.20;;;1.10;;
4080;SDS011;2055;50.074;8.436;2022-08-01T10:09:44;0.90;;;0.80;;
4080;SDS011;2055;50.074;8.436;2022-08-01T10:12:11;0.80;;;0.70;;
4080;SDS011;2055;50.074;8.436;2022-08-01T10:14:39;1.10;;;1.00;;
4080;SDS011;2055;50.074;8.436;2022-08-01T10:17:06;1.00;;;0.90;;
4080;SDS011;2055;50.074;8.436;2022-08-01T10:19:34;1.50;;;1.40;;
4080;SDS011;2055;50.074;8.436;2022-08-01T10:22:01;0.90;;;0.80;;
4080;SDS011;2055;50.074;8.436;2022-08-01T10:24:34;1.00;;;0.90;;
4080;SDS011;2055;50.074;8.436;2022-08-01T10:27:03;0.90;;;0.80;;
4080;SDS011;2055;50.074;8.436;2022-08-01T10:29:31;1.40;;;1.30;;
4080;SDS011;2055;50.074;8.436;2022-08-01T10:32:06;1.10;;;1.00;;
4080;SDS011;2055;50.074;8.436;2022-08-01T10:34:34;2.50;;;2.30;;
4080;SDS011;2055;50.074;8.436;2022-08-01T10:37:00;1.00;;;0.90;;
4080;SDS011;2055;50.074;8.436;2022-08-01T10:39:26;1.00;;;0.90;;
4080;SDS011;2055;50.074;8.436;2022-08-01T10:41:55;1.10;;;1.00;;
4080;SDS011;2055;50.074;8.436;2022-08-01T10:44:21;0.97;;;0.87;;
4080;SDS011;2055;50.074;8.436;2022-08-01T10:46:52;1.03;;;0.93;;
4080;SDS011;2055;50.074;8.436;2022-08-01T10:49:22;0.90;;;0.80;;
4080;SDS011;2055;50.074;8.436;2022-08-01T10:51:52;1.50;;;1.40;;
4080;SDS011;2055;50.074;8.436;2022-08-01T10:54:18;1.70;;;1.60;;
4080;SDS011;2055;50.074;8.436;2022-08-01T10:56:48;1.50;;;1.40;;
4080;SDS011;2055;50.074;8.436;2022-08-01T10:59:24;1.20;;;1.10;;
4080;SDS011;2055;50.074;8.436;2022-08-01T11:01:58;1.37;;;1.23;;
4080;SDS011;2055;50.074;8.436;2022-08-01T11:07:34;1.23;;;1.13;;
4080;SDS011;2055;50.074;8.436;2022-08-01T11:10:22;1.30;;;1.20;;
4080;SDS011;2055;50.074;8.436;2022-08-01T11:12:52;1.40;;;1.30;;
4080;SDS011;2055;50.074;8.436;2022-08-01T11:15:18;1.20;;;1.10;;
4080;SDS011;2055;50.074;8.436;2022-08-01T11:17:52;2.70;;;2.50;;
4080;SDS011;2055;50.074;8.436;2022-08-01T11:20:19;2.53;;;2.33;;
4080;SDS011;2055;50.074;8.436;2022-08-01T11:30:39;1.00;;;0.90;;
4080;SDS011;2055;50.074;8.436;2022-08-01T11:33:05;1.07;;;0.97;;
4080;SDS011;2055;50.074;8.436;2022-08-01T11:35:32;1.57;;;1.43;;
4080;SDS011;2055;50.074;8.436;2022-08-01T11:38:21;1.43;;;1.33;;
4080;SDS011;2055;50.074;8.436;2022-08-01T11:41:08;1.40;;;1.30;;
4080;SDS011;2055;50.074;8.436;2022-08-01T11:51:57;1.70;;;1.60;;
4080;SDS011;2055;50.074;8.436;2022-08-01T11:54:26;2.40;;;1.73;;
4080;SDS011;2055;50.074;8.436;2022-08-01T11:56:54;2.20;;;2.00;;
4080;SDS011;2055;50.074;8.436;2022-08-01T11:59:24;2.30;;;2.10;;
4080;SDS011;2055;50.074;8.436;2022-08-01T12:01:50;1.37;;;1.27;;
4080;SDS011;2055;50.074;8.436;2022-08-01T12:04:16;1.50;;;1.40;;
4080;SDS011;2055;50.074;8.436;2022-08-01T12:06:41;1.10;;;1.00;;
4080;SDS011;2055;50.074;8.436;2022-08-01T12:09:17;1.13;;;1.03;;
4080;SDS011;2055;50.074;8.436;2022-08-01T12:11:44;1.40;;;1.30;;
4080;SDS011;2055;50.074;8.436;2022-08-01T12:14:15;1.63;;;1.53;;
4080;SDS011;2055;50.074;8.436;2022-08-01T12:16:49;1.20;;;1.10;;
4080;SDS011;2055;50.074;8.436;2022-08-01T12:19:18;1.20;;;1.10;;
4080;SDS011;2055;50.074;8.436;2022-08-01T12:22:06;1.70;;;1.60;;
4080;SDS011;2055;50.074;8.436;2022-08-01T12:24:38;1.50;;;1.40;;
4080;SDS011;2055;50.074;8.436;2022-08-01T12:27:05;1.20;;;1.10;;
4080;SDS011;2055;50.074;8.436;2022-08-01T12:29:40;1.60;;;1.50;;
4080;SDS011;2055;50.074;8.436;2022-08-01T12:32:25;1.00;;;0.90;;
4080;SDS011;2055;50.074;8.436;2022-08-01T12:35:04;1.30;;;1.20;;
4080;SDS011;2055;50.074;8.436;2022-08-01T12:37:38;1.30;;;1.20;;
4080;SDS011;2055;50.074;8.436;2022-08-01T12:42:40;1.40;;;1.30;;
4080;SDS011;2055;50.074;8.436;2022-08-01T12:45:07;1.47;;;1.37;;
4080;SDS011;2055;50.074;8.436;2022-08-01T12:47:35;1.33;;;1.23;;
4080;SDS011;2055;50.074;8.436;2022-08-01T12:50:05;1.17;;;1.07;;
4080;SDS011;2055;50.074;8.436;2022-08-01T12:52:37;1.30;;;1.20;;
4080;SDS011;2055;50.074;8.436;2022-08-01T12:57:31;1.40;;;1.30;;
4080;SDS011;2055;50.074;8.436;2022-08-01T13:00:16;1.40;;;1.30;;
4080;SDS011;2055;50.074;8.436;2022-08-01T13:02:47;1.97;;;1.90;;
4080;SDS011;2055;50.074;8.436;2022-08-01T13:05:15;1.83;;;1.73;;
4080;SDS011;2055;50.074;8.436;2022-08-01T13:07:45;1.57;;;1.47;;
4080;SDS011;2055;50.074;8.436;2022-08-01T13:10:14;2.00;;;1.90;;
4080;SDS011;2055;50.074;8.436;2022-08-01T13:12:52;1.80;;;1.70;;
4080;SDS011;2055;50.074;8.436;2022-08-01T13:15:20;2.07;;;1.93;;
4080;SDS011;2055;50.074;8.436;2022-08-01T13:17:48;1.87;;;1.77;;
4080;SDS011;2055;50.074;8.436;2022-08-01T13:20:24;1.33;;;1.23;;
4080;SDS011;2055;50.074;8.436;2022-08-01T13:22:54;1.50;;;1.40;;
4080;SDS011;2055;50.074;8.436;2022-08-01T13:25:20;1.53;;;1.43;;
4080;SDS011;2055;50.074;8.436;2022-08-01T13:27:47;1.87;;;1.77;;
4080;SDS011;2055;50.074;8.436;2022-08-01T13:30:17;2.23;;;2.03;;
4080;SDS011;2055;50.074;8.436;2022-08-01T13:32:56;1.70;;;1.60;;
4080;SDS011;2055;50.074;8.436;2022-08-01T13:35:25;1.63;;;1.53;;
4080;SDS011;2055;50.074;8.436;2022-08-01T13:37:51;1.30;;;1.20;;
4080;SDS011;2055;50.074;8.436;2022-08-01T13:40:24;1.50;;;1.40;;
4080;SDS011;2055;50.074;8.436;2022-08-01T13:42:51;1.40;;;1.30;;
4080;SDS011;2055;50.074;8.436;2022-08-01T13:45:17;2.00;;;1.90;;
4080;SDS011;2055;50.074;8.436;2022-08-01T13:47:42;1.80;;;1.70;;
4080;SDS011;2055;50.074;8.436;2022-08-01T13:50:08;1.30;;;1.20;;
4080;SDS011;2055;50.074;8.436;2022-08-01T13:52:34;1.27;;;1.17;;
4080;SDS011;2055;50.074;8.436;2022-08-01T13:54:59;1.20;;;1.10;;
4080;SDS011;2055;50.074;8.436;2022-08-01T13:57:26;1.00;;;0.90;;
4080;SDS011;2055;50.074;8.436;2022-08-01T13:59:52;1.17;;;1.07;;
4080;SDS011;2055;50.074;8.436;2022-08-01T14:02:18;1.20;;;1.10;;
4080;SDS011;2055;50.074;8.436;2022-08-01T14:04:44;1.27;;;1.17;;
4080;SDS011;2055;50.074;8.436;2022-08-01T14:07:09;2.53;;;1.73;;
4080;SDS011;2055;50.074;8.436;2022-08-01T14:09:35;1.80;;;1.70;;
4080;SDS011;2055;50.074;8.436;2022-08-01T14:12:01;1.30;;;1.20;;
4080;SDS011;2055;50.074;8.436;2022-08-01T14:14:27;1.63;;;1.53;;
4080;SDS011;2055;50.074;8.436;2022-08-01T14:16:53;1.50;;;1.40;;
4080;SDS011;2055;50.074;8.436;2022-08-01T14:19:18;1.47;;;1.37;;
4080;SDS011;2055;50.074;8.436;2022-08-01T14:21:44;1.70;;;1.60;;
4080;SDS011;2055;50.074;8.436;2022-08-01T14:24:09;1.20;;;1.10;;
4080;SDS011;2055;50.074;8.436;2022-08-01T14:26:35;1.60;;;1.50;;
4080;SDS011;2055;50.074;8.436;2022-08-01T14:29:00;1.87;;;1.77;;
4080;SDS011;2055;50.074;8.436;2022-08-01T14:31:26;1.77;;;1.53;;
4080;SDS011;2055;50.074;8.436;2022-08-01T14:33:54;1.90;;;1.80;;
4080;SDS011;2055;50.074;8.436;2022-08-01T14:36:19;1.73;;;1.63;;
4080;SDS011;2055;50.074;8.436;2022-08-01T14:38:45;1.40;;;1.30;;
4080;SDS011;2055;50.074;8.436;2022-08-01T14:41:11;1.60;;;1.50;;
4080;SDS011;2055;50.074;8.436;2022-08-01T14:43:36;2.27;;;2.07;;
4080;SDS011;2055;50.074;8.436;2022-08-01T14:46:03;1.50;;;1.40;;
4080;SDS011;2055;50.074;8.436;2022-08-01T14:48:29;1.67;;;1.57;;
4080;SDS011;2055;50.074;8.436;2022-08-01T14:50:55;1.80;;;1.70;;
4080;SDS011;2055;50.074;8.436;2022-08-01T14:53:21;1.67;;;1.57;;
4080;SDS011;2055;50.074;8.436;2022-08-01T14:55:46;1.60;;;1.50;;
4080;SDS011;2055;50.074;8.436;2022-08-01T14:58:12;1.33;;;1.23;;
4080;SDS011;2055;50.074;8.436;2022-08-01T15:00:38;1.57;;;1.47;;
4080;SDS011;2055;50.074;8.436;2022-08-01T15:03:03;1.77;;;1.67;;
4080;SDS011;2055;50.074;8.436;2022-08-01T15:05:29;1.70;;;1.60;;
4080;SDS011;2055;50.074;8.436;2022-08-01T15:07:55;1.93;;;1.83;;
4080;SDS011;2055;50.074;8.436;2022-08-01T15:10:21;1.70;;;1.60;;
4080;SDS011;2055;50.074;8.436;2022-08-01T15:12:47;3.63;;;3.40;;
4080;SDS011;2055;50.074;8.436;2022-08-01T15:15:13;1.60;;;1.50;;
4080;SDS011;2055;50.074;8.436;2022-08-01T15:17:39;1.60;;;1.50;;
4080;SDS011;2055;50.074;8.436;2022-08-01T15:20:05;1.60;;;1.50;;
4080;SDS011;2055;50.074;8.436;2022-08-01T15:22:31;2.50;;;2.30;;
4080;SDS011;2055;50.074;8.436;2022-08-01T15:24:58;2.63;;;2.43;;
4080;SDS011;2055;50.074;8.436;2022-08-01T15:27:25;2.50;;;2.30;;
4080;SDS011;2055;50.074;8.436;2022-08-01T15:29:51;1.60;;;1.50;;
4080;SDS011;2055;50.074;8.436;2022-08-01T15:32:18;1.73;;;1.73;;
4080;SDS011;2055;50.074;8.436;2022-08-01T15:34:43;1.30;;;1.20;;
4080;SDS011;2055;50.074;8.436;2022-08-01T15:37:09;1.50;;;1.40;;
4080;SDS011;2055;50.074;8.436;2022-08-01T15:39:36;1.67;;;1.57;;
4080;SDS011;2055;50.074;8.436;2022-08-01T15:42:04;1.70;;;1.60;;
4080;SDS011;2055;50.074;8.436;2022-08-01T15:44:33;1.70;;;1.60;;
4080;SDS011;2055;50.074;8.436;2022-08-01T15:46:59;2.07;;;1.93;;
4080;SDS011;2055;50.074;8.436;2022-08-01T15:49:25;1.60;;;1.50;;
4080;SDS011;2055;50.074;8.436;2022-08-01T15:51:51;1.77;;;1.67;;
4080;SDS011;2055;50.074;8.436;2022-08-01T15:54:17;1.90;;;1.80;;
4080;SDS011;2055;50.074;8.436;2022-08-01T15:56:43;1.80;;;1.70;;